Time,TemperatureF,DewpointF,PressureIn,WindDirection,WindDirectionDegrees,WindSpeedMPH,WindSpeedGustMPH,Humidity,HourlyPrecipIn,Conditions,Clouds,dailyrainin,SolarRadiationWatts/m^2,SoftwareType,DateUTC
2013-06-12 00:22:00,50.0,40.0,-100.00,SSW,200,3.0,6.0,68,0.00,,,0.00,0.000000,,2013-06-12 06:22:00,
2013-06-12 00:32:00,50.0,40.0,-100.00,SSW,200,3.0,6.0,68,0.00,,,0.00,0.000000,,2013-06-12 06:32:00,
2013-06-12 00:42:00,50.0,40.0,-100.00,SSW,200,3.0,6.0,68,0.00,,,0.00,0.000000,,2013-06-12 06:42:00,
2013-06-12 00:52:00,50.0,40.0,-100.00,SSW,200,3.0,6.0,68,0.00,,,0.00,0.000000,,2013-06-12 06:52:00,
2013-06-12 01:22:00,48.0,39.0,-100.00,SSW,198,3.0,6.0,70,0.00,,,0.00,0.000000,,2013-06-12 07:22:00,
2013-06-12 01:33:00,48.0,39.0,-100.00,SSW,198,3.0,6.0,70,0.00,,,0.00,0.000000,,2013-06-12 07:33:00,
2013-06-12 01:43:00,48.0,39.0,-100.00,SSW,198,3.0,6.0,70,0.00,,,0.00,0.000000,,2013-06-12 07:43:00,
2013-06-12 01:53:00,48.0,39.0,-100.00,SSW,198,3.0,6.0,70,0.00,,,0.00,0.000000,,2013-06-12 07:53:00,
2013-06-12 02:33:00,48.0,39.0,-100.00,SW,224,2.0,8.0,71,0.00,,,0.00,0.000000,,2013-06-12 08:33:00,
2013-06-12 02:43:00,48.0,39.0,-100.00,SW,224,2.0,8.0,71,0.00,,,0.00,0.000000,,2013-06-12 08:43:00,
2013-06-12 02:53:00,48.0,39.0,-100.00,SW,224,2.0,8.0,71,0.00,,,0.00,0.000000,,2013-06-12 08:53:00,
2013-06-12 03:22:00,46.0,38.0,-100.00,WSW,239,2.0,6.0,74,0.00,,,0.00,0.000000,,2013-06-12 09:22:00,
2013-06-12 03:33:00,46.0,38.0,-100.00,WSW,239,2.0,6.0,74,0.00,,,0.00,0.000000,,2013-06-12 09:33:00,
2013-06-12 03:42:00,46.0,38.0,-100.00,WSW,239,2.0,6.0,74,0.00,,,0.00,0.000000,,2013-06-12 09:42:00,
2013-06-12 03:53:00,46.0,38.0,-100.00,WSW,239,2.0,6.0,74,0.00,,,0.00,0.000000,,2013-06-12 09:53:00,
2013-06-12 04:33:00,45.0,38.0,-100.00,SSE,160,1.0,5.0,75,0.00,,,0.00,0.000000,,2013-06-12 10:33:00,
2013-06-12 04:43:00,45.0,38.0,-100.00,SSE,160,1.0,5.0,75,0.00,,,0.00,0.000000,,2013-06-12 10:43:00,
2013-06-12 04:53:00,45.0,38.0,-100.00,SSE,160,1.0,5.0,75,0.00,,,0.00,0.000000,,2013-06-12 10:53:00,
2013-06-12 05:24:00,44.0,37.0,-100.00,SSW,201,1.0,6.0,77,0.00,,,0.00,0.000000,,2013-06-12 11:24:00,
2013-06-12 05:33:00,44.0,37.0,-100.00,SSW,201,1.0,6.0,77,0.00,,,0.00,0.000000,,2013-06-12 11:33:00,
2013-06-12 05:43:00,44.0,37.0,-100.00,SSW,201,1.0,6.0,77,0.00,,,0.00,0.000000,,2013-06-12 11:43:00,
2013-06-12 05:53:00,44.0,37.0,-100.00,SSW,201,1.0,6.0,77,0.00,,,0.00,0.000000,,2013-06-12 11:53:00,
2013-06-12 06:33:00,42.0,36.0,-100.00,SW,221,2.0,5.0,79,0.00,,,0.00,1.000000,,2013-06-12 12:33:00,
2013-06-12 06:42:00,42.0,36.0,-100.00,SW,221,2.0,5.0,79,0.00,,,0.00,1.000000,,2013-06-12 12:42:00,
2013-06-12 06:53:00,42.0,36.0,-100.00,SW,221,2.0,5.0,79,0.00,,,0.00,1.000000,,2013-06-12 12:53:00,
2013-06-12 07:32:00,42.0,35.0,-100.00,SSW,200,2.0,5.0,75,0.00,,,0.00,16.000000,,2013-06-12 13:32:00,
2013-06-12 07:43:00,42.0,35.0,-100.00,SSW,200,2.0,5.0,75,0.00,,,0.00,16.000000,,2013-06-12 13:43:00,
2013-06-12 07:53:00,42.0,35.0,-100.00,SSW,200,2.0,5.0,75,0.00,,,0.00,16.000000,,2013-06-12 13:53:00,
2013-06-12 08:23:00,45.0,36.0,-100.00,SW,219,1.0,5.0,71,0.00,,,0.00,113.000000,,2013-06-12 14:23:00,
2013-06-12 08:33:00,45.0,36.0,-100.00,SW,219,1.0,5.0,71,0.00,,,0.00,113.000000,,2013-06-12 14:33:00,
2013-06-12 08:43:00,45.0,36.0,-100.00,SW,219,1.0,5.0,71,0.00,,,0.00,113.000000,,2013-06-12 14:43:00,
2013-06-12 08:53:00,45.0,36.0,-100.00,SW,219,1.0,5.0,71,0.00,,,0.00,113.000000,,2013-06-12 14:53:00,
2013-06-12 09:23:00,48.0,37.0,-100.00,WNW,294,1.0,5.0,66,0.00,,,0.00,185.000000,,2013-06-12 15:23:00,
2013-06-12 09:33:00,48.0,37.0,-100.00,WNW,294,1.0,5.0,66,0.00,,,0.00,185.000000,,2013-06-12 15:33:00,
2013-06-12 09:43:00,48.0,37.0,-100.00,WNW,294,1.0,5.0,66,0.00,,,0.00,185.000000,,2013-06-12 15:43:00,
2013-06-12 09:52:00,48.0,37.0,-100.00,WNW,294,1.0,5.0,66,0.00,,,0.00,185.000000,,2013-06-12 15:52:00,
2013-06-12 10:21:00,53.0,39.0,-100.00,West,269,3.0,5.0,59,0.00,,,0.00,526.000000,,2013-06-12 16:21:00,
2013-06-12 10:32:00,53.0,39.0,-100.00,West,269,3.0,5.0,59,0.00,,,0.00,526.000000,,2013-06-12 16:32:00,
2013-06-12 10:43:00,53.0,39.0,-100.00,West,269,3.0,5.0,59,0.00,,,0.00,526.000000,,2013-06-12 16:43:00,
2013-06-12 10:52:00,53.0,39.0,-100.00,West,269,3.0,5.0,59,0.00,,,0.00,526.000000,,2013-06-12 16:52:00,
2013-06-12 11:22:00,58.0,41.0,-100.00,West,269,2.0,6.0,53,0.00,,,0.00,697.000000,,2013-06-12 17:22:00,
2013-06-12 11:33:00,58.0,41.0,-100.00,West,269,2.0,6.0,53,0.00,,,0.00,697.000000,,2013-06-12 17:33:00,
2013-06-12 11:42:00,58.0,41.0,-100.00,West,269,2.0,6.0,53,0.00,,,0.00,697.000000,,2013-06-12 17:42:00,
2013-06-12 11:52:00,58.0,41.0,-100.00,West,269,2.0,6.0,53,0.00,,,0.00,697.000000,,2013-06-12 17:52:00,
2013-06-12 12:22:00,62.0,42.0,-100.00,West,262,3.0,7.0,47,0.00,,,0.00,831.000000,,2013-06-12 18:22:00,
2013-06-12 12:32:00,62.0,42.0,-100.00,West,262,3.0,7.0,47,0.00,,,0.00,831.000000,,2013-06-12 18:32:00,
2013-06-12 12:43:00,62.0,42.0,-100.00,West,262,3.0,7.0,47,0.00,,,0.00,831.000000,,2013-06-12 18:43:00,
2013-06-12 12:53:00,62.0,42.0,-100.00,West,262,3.0,7.0,47,0.00,,,0.00,831.000000,,2013-06-12 18:53:00,
2013-06-12 13:22:00,64.0,40.0,-100.00,WNW,284,4.0,9.0,42,0.00,,,0.00,924.000000,,2013-06-12 19:22:00,
2013-06-12 13:32:00,64.0,40.0,-100.00,WNW,284,4.0,9.0,42,0.00,,,0.00,924.000000,,2013-06-12 19:32:00,
2013-06-12 13:42:00,64.0,40.0,-100.00,WNW,284,4.0,9.0,42,0.00,,,0.00,924.000000,,2013-06-12 19:42:00,
2013-06-12 13:52:00,64.0,40.0,-100.00,WNW,284,4.0,9.0,42,0.00,,,0.00,924.000000,,2013-06-12 19:52:00,
2013-06-12 14:21:00,66.0,40.0,-100.00,West,278,5.0,11.0,39,0.00,,,0.00,953.000000,,2013-06-12 20:21:00,
2013-06-12 14:32:00,66.0,40.0,-100.00,West,278,5.0,11.0,39,0.00,,,0.00,953.000000,,2013-06-12 20:32:00,
2013-06-12 14:42:00,66.0,40.0,-100.00,West,278,5.0,11.0,39,0.00,,,0.00,953.000000,,2013-06-12 20:42:00,
2013-06-12 14:54:00,66.0,40.0,-100.00,West,278,5.0,11.0,39,0.00,,,0.00,953.000000,,2013-06-12 20:54:00,
2013-06-12 15:21:00,70.0,36.0,-100.00,WSW,253,4.0,10.0,29,0.00,,,0.00,900.000000,,2013-06-12 21:21:00,
2013-06-12 15:33:00,70.0,36.0,-100.00,WSW,253,4.0,10.0,29,0.00,,,0.00,900.000000,,2013-06-12 21:33:00,
2013-06-12 15:43:00,70.0,36.0,-100.00,WSW,253,4.0,10.0,29,0.00,,,0.00,900.000000,,2013-06-12 21:43:00,
2013-06-12 15:52:00,70.0,36.0,-100.00,WSW,253,4.0,10.0,29,0.00,,,0.00,900.000000,,2013-06-12 21:52:00,
2013-06-12 16:32:00,70.0,32.0,-100.00,WSW,249,5.0,13.0,24,0.00,,,0.00,921.000000,,2013-06-12 22:32:00,
2013-06-12 16:43:00,70.0,32.0,-100.00,WSW,249,5.0,13.0,24,0.00,,,0.00,921.000000,,2013-06-12 22:43:00,
2013-06-12 16:52:00,70.0,32.0,-100.00,WSW,249,5.0,13.0,24,0.00,,,0.00,921.000000,,2013-06-12 22:52:00,
2013-06-12 17:22:00,71.0,31.0,-100.00,West,269,4.0,10.0,23,0.00,,,0.00,806.000000,,2013-06-12 23:22:00,
2013-06-12 17:32:00,71.0,31.0,-100.00,West,269,4.0,10.0,23,0.00,,,0.00,806.000000,,2013-06-12 23:32:00,
2013-06-12 17:42:00,71.0,31.0,-100.00,West,269,4.0,10.0,23,0.00,,,0.00,806.000000,,2013-06-12 23:42:00,
2013-06-12 17:52:00,71.0,31.0,-100.00,West,269,4.0,10.0,23,0.00,,,0.00,806.000000,,2013-06-12 23:52:00,
2013-06-12 18:22:00,69.0,30.0,-100.00,WNW,294,4.0,9.0,23,0.00,,,0.00,655.000000,,2013-06-13 00:22:00,
2013-06-12 18:32:00,69.0,30.0,-100.00,WNW,294,4.0,9.0,23,0.00,,,0.00,655.000000,,2013-06-13 00:32:00,
2013-06-12 18:42:00,69.0,30.0,-100.00,WNW,294,4.0,9.0,23,0.00,,,0.00,655.000000,,2013-06-13 00:42:00,
2013-06-12 18:52:00,69.0,30.0,-100.00,WNW,294,4.0,9.0,23,0.00,,,0.00,655.000000,,2013-06-13 00:52:00,
2013-06-12 19:32:00,68.0,31.0,-100.00,NNW,344,4.0,11.0,25,0.00,,,0.00,471.000000,,2013-06-13 01:32:00,
2013-06-12 19:42:00,68.0,31.0,-100.00,NNW,344,4.0,11.0,25,0.00,,,0.00,471.000000,,2013-06-13 01:42:00,
2013-06-12 19:53:00,68.0,31.0,-100.00,NNW,344,4.0,11.0,25,0.00,,,0.00,471.000000,,2013-06-13 01:53:00,
2013-06-12 20:22:00,64.0,38.0,-100.00,WNW,282,4.0,12.0,38,0.00,,,0.00,281.000000,,2013-06-13 02:22:00,
2013-06-12 20:33:00,64.0,38.0,-100.00,WNW,282,4.0,12.0,38,0.00,,,0.00,281.000000,,2013-06-13 02:33:00,
2013-06-12 20:42:00,64.0,38.0,-100.00,WNW,282,4.0,12.0,38,0.00,,,0.00,281.000000,,2013-06-13 02:42:00,
2013-06-12 20:52:00,64.0,38.0,-100.00,WNW,282,4.0,12.0,38,0.00,,,0.00,281.000000,,2013-06-13 02:52:00,
2013-06-12 21:22:00,57.0,39.0,-100.00,West,277,2.0,11.0,51,0.00,,,0.00,99.000000,,2013-06-13 03:22:00,
2013-06-12 21:33:00,57.0,39.0,-100.00,West,277,2.0,11.0,51,0.00,,,0.00,99.000000,,2013-06-13 03:33:00,
2013-06-12 21:42:00,57.0,39.0,-100.00,West,277,2.0,11.0,51,0.00,,,0.00,99.000000,,2013-06-13 03:42:00,
2013-06-12 21:52:00,57.0,39.0,-100.00,West,277,2.0,11.0,51,0.00,,,0.00,99.000000,,2013-06-13 03:52:00,
2013-06-12 22:22:00,53.0,40.0,-100.00,West,260,2.0,10.0,62,0.00,,,0.00,8.000000,,2013-06-13 04:22:00,
2013-06-12 22:32:00,53.0,40.0,-100.00,West,260,2.0,10.0,62,0.00,,,0.00,8.000000,,2013-06-13 04:32:00,
2013-06-12 22:43:00,53.0,40.0,-100.00,West,260,2.0,10.0,62,0.00,,,0.00,8.000000,,2013-06-13 04:43:00,
2013-06-12 22:53:00,53.0,40.0,-100.00,West,260,2.0,10.0,62,0.00,,,0.00,8.000000,,2013-06-13 04:53:00,
2013-06-12 23:23:00,53.0,39.0,-100.00,WNW,283,4.0,9.0,58,0.00,,,0.00,0.000000,,2013-06-13 05:23:00,
2013-06-12 23:33:00,53.0,39.0,-100.00,WNW,283,4.0,9.0,58,0.00,,,0.00,0.000000,,2013-06-13 05:33:00,
2013-06-12 23:42:00,53.0,39.0,-100.00,WNW,283,4.0,9.0,58,0.00,,,0.00,0.000000,,2013-06-13 05:42:00,
2013-06-12 23:53:00,53.0,39.0,-100.00,WNW,283,4.0,9.0,58,0.00,,,0.00,0.000000,,2013-06-13 05:53:00,